Time;durP1;ratioP1;P1;durP2;ratioP2;P2;SDS_P1;SDS_P2;PMS_P1;PMS_P2;Temp;Humidity;BMP_temperature;BMP_pressure;BME280_temperature;BME280_humidity;BME280_pressure;Samples;Min_cycle;Max_cycle;Signal;HPM_P1;HPM_P2
2021/09/27 00:00:15;;;;;;;12.33;11.13;;;19.00;99.90;;;;;;5099425;28;20161;-76
2021/09/27 00:02:41;;;;;;;9.60;8.27;;;19.10;99.90;;;;;;5099096;28;20159;-75
2021/09/27 00:05:16;;;;;;;9.47;8.47;;;19.10;99.90;;;;;;5095595;28;20165;-76
2021/09/27 00:07:42;;;;;;;12.73;9.20;;;19.10;99.90;;;;;;5094336;28;20184;-76
2021/09/27 00:10:10;;;;;;;10.00;8.87;;;19.00;99.90;;;;;;5094694;28;20605;-83
2021/09/27 00:12:37;;;;;;;11.07;9.27;;;18.90;99.90;;;;;;5076493;28;20514;-80
2021/09/27 00:15:10;;;;;;;10.67;9.17;;;18.80;99.90;;;;;;5095277;28;20179;-84
2021/09/27 00:17:36;;;;;;;11.43;8.43;;;18.80;99.90;;;;;;5100099;28;20211;-82
2021/09/27 00:20:03;;;;;;;12.47;9.47;;;18.70;99.90;;;;;;5100967;28;20545;-74
2021/09/27 00:22:29;;;;;;;10.13;9.03;;;18.60;99.90;;;;;;5105207;28;20152;-75
2021/09/27 00:24:55;;;;;;;11.77;9.80;;;18.60;99.90;;;;;;5101966;28;20252;-77
2021/09/27 00:27:20;;;;;;;12.27;9.83;;;18.70;99.90;;;;;;5095774;28;20541;-80
2021/09/27 00:29:52;;;;;;;11.30;9.60;;;18.70;99.90;;;;;;5095030;28;20638;-75
2021/09/27 00:32:18;;;;;;;14.50;10.00;;;18.60;99.90;;;;;;5094708;28;20196;-76
2021/09/27 00:34:43;;;;;;;11.83;10.60;;;18.50;99.90;;;;;;5095555;28;20221;-82
2021/09/27 00:37:09;;;;;;;12.97;10.70;;;18.60;99.90;;;;;;5095588;28;20631;-78
2021/09/27 00:39:35;;;;;;;14.13;11.37;;;18.50;99.90;;;;;;5098777;28;20219;-76
2021/09/27 00:42:00;;;;;;;13.40;11.73;;;18.50;99.90;;;;;;5102043;28;20194;-74
2021/09/27 00:44:26;;;;;;;14.00;10.77;;;18.50;99.90;;;;;;5110660;28;20175;-75
2021/09/27 00:46:53;;;;;;;13.63;11.17;;;18.40;99.90;;;;;;5104300;28;20168;-75
2021/09/27 00:49:19;;;;;;;13.93;10.90;;;18.40;99.90;;;;;;5096258;28;20269;-75
2021/09/27 00:52:07;;;;;;;13.13;10.90;;;18.40;99.90;;;;;;5094062;28;20204;-77
2021/09/27 00:54:35;;;;;;;12.80;11.37;;;18.50;99.90;;;;;;5095493;28;20601;-75
2021/09/27 00:57:05;;;;;;;12.70;10.77;;;18.40;99.90;;;;;;5097816;28;20183;-75
2021/09/27 00:59:32;;;;;;;12.73;11.07;;;18.40;99.90;;;;;;5096298;28;20566;-74
2021/09/27 01:01:58;;;;;;;14.47;11.53;;;18.40;99.90;;;;;;5094968;28;20169;-76
2021/09/27 01:04:24;;;;;;;13.93;11.23;;;18.40;99.90;;;;;;5098656;28;20190;-74
2021/09/27 01:07:08;;;;;;;13.53;10.77;;;18.30;99.90;;;;;;5096885;28;20288;-77
2021/09/27 01:10:11;;;;;;;13.90;11.90;;;18.20;99.90;;;;;;5094308;28;20661;-75
2021/09/27 01:13:05;;;;;;;14.77;11.90;;;18.20;99.90;;;;;;5094075;28;20171;-76
2021/09/27 01:15:50;;;;;;;12.87;10.60;;;18.30;99.90;;;;;;5094233;28;20192;-75
2021/09/27 01:18:43;;;;;;;13.93;11.13;;;18.20;99.90;;;;;;5093665;28;20262;-76
2021/09/27 01:24:49;;;;;;;13.53;10.77;;;18.30;99.90;;;;;;5105401;22;20265;-84
2021/09/27 01:27:23;;;;;;;14.67;11.27;;;18.20;99.90;;;;;;5111112;28;20175;-81
2021/09/27 01:30:14;;;;;;;14.90;11.33;;;18.10;99.90;;;;;;5094554;28;20171;-82
2021/09/27 01:32:48;;;;;;;13.90;11.10;;;18.10;99.90;;;;;;5092443;28;20170;-81
2021/09/27 01:35:49;;;;;;;14.60;10.80;;;18.10;99.90;;;;;;5092481;28;20167;-81
2021/09/27 01:38:23;;;;;;;13.27;10.53;;;18.20;99.90;;;;;;5095529;28;20237;-83
2021/09/27 01:41:12;;;;;;;14.17;11.70;;;18.20;99.90;;;;;;5095702;28;20630;-81
2021/09/27 01:43:56;;;;;;;13.13;11.33;;;18.30;99.90;;;;;;5091160;28;20176;-84
2021/09/27 01:46:26;;;;;;;12.70;11.40;;;18.30;99.90;;;;;;5110284;28;20187;-82
2021/09/27 01:48:58;;;;;;;12.83;10.60;;;18.30;99.90;;;;;;5109429;28;20188;-82
2021/09/27 01:51:44;;;;;;;13.30;11.10;;;18.20;99.90;;;;;;5088992;28;20571;-83
2021/09/27 01:54:22;;;;;;;14.10;11.10;;;18.20;99.90;;;;;;5088071;28;20164;-85
2021/09/27 01:57:11;;;;;;;12.00;10.37;;;18.20;99.90;;;;;;5091753;28;20239;-80
2021/09/27 02:00:04;;;;;;;12.70;10.43;;;18.20;99.90;;;;;;5110755;28;20188;-82
2021/09/27 02:02:48;;;;;;;12.57;10.40;;;18.20;99.90;;;;;;5106212;28;20163;-82
2021/09/27 02:05:32;;;;;;;11.37;10.17;;;18.00;99.90;;;;;;5106994;28;20166;-84
2021/09/27 02:08:08;;;;;;;11.20;9.97;;;17.90;99.90;;;;;;5107604;28;20278;-81
2021/09/27 02:10:50;;;;;;;14.10;11.40;;;17.90;99.90;;;;;;5102634;28;20175;-83
2021/09/27 02:13:30;;;;;;;12.67;11.00;;;18.00;99.90;;;;;;5101141;28;20615;-83
2021/09/27 02:16:06;;;;;;;13.67;10.83;;;18.10;99.90;;;;;;5098268;28;20170;-83
2021/09/27 02:18:49;;;;;;;13.20;11.03;;;18.10;99.90;;;;;;5077961;28;20220;-82
2021/09/27 02:21:21;;;;;;;17.77;12.13;;;18.20;99.90;;;;;;5096233;28;20248;-82
2021/09/27 02:23:53;;;;;;;13.87;11.67;;;18.30;99.90;;;;;;5096097;28;20542;-82
2021/09/27 02:26:20;;;;;;;13.10;11.70;;;18.30;99.90;;;;;;5095721;28;20670;-81
2021/09/27 02:28:46;;;;;;;15.13;13.07;;;18.40;99.90;;;;;;5078079;28;20175;-84
2021/09/27 02:31:33;;;;;;;14.43;11.80;;;18.30;99.90;;;;;;5077902;28;20173;-84
2021/09/27 02:34:05;;;;;;;12.70;11.37;;;18.30;99.90;;;;;;5077938;28;20199;-84
2021/09/27 02:36:42;;;;;;;13.97;11.63;;;18.10;99.90;;;;;;5098690;28;20169;-83
2021/09/27 02:39:18;;;;;;;15.70;12.70;;;18.10;99.90;;;;;;5098126;28;21125;-84
2021/09/27 02:41:53;;;;;;;15.20;11.93;;;18.10;99.90;;;;;;5095935;28;20170;-84
2021/09/27 02:44:19;;;;;;;14.43;12.40;;;18.20;99.90;;;;;;5095913;28;20171;-84
2021/09/27 02:46:55;;;;;;;16.07;12.80;;;18.30;99.90;;;;;;5076821;28;20223;-84
2021/09/27 02:49:26;;;;;;;16.30;12.50;;;18.40;99.90;;;;;;5077173;28;20195;-84
2021/09/27 02:51:55;;;;;;;14.57;12.77;;;18.40;99.90;;;;;;5096226;28;20207;-83
2021/09/27 02:54:38;;;;;;;14.37;12.90;;;18.30;99.90;;;;;;5077118;28;20292;-83
2021/09/27 02:57:13;;;;;;;14.33;12.73;;;18.30;99.90;;;;;;5079105;28;20608;-83
2021/09/27 02:59:48;;;;;;;14.03;12.47;;;18.20;99.90;;;;;;5096348;28;20603;-83
2021/09/27 03:02:37;;;;;;;15.90;13.73;;;18.00;99.90;;;;;;5077893;28;20252;-82
2021/09/27 03:05:27;;;;;;;14.10;12.23;;;17.90;99.90;;;;;;5096176;28;20183;-83
2021/09/27 03:08:11;;;;;;;17.67;13.10;;;17.90;99.90;;;;;;5096207;28;20236;-80
2021/09/27 03:11:09;;;;;;;15.77;13.20;;;17.80;99.90;;;;;;5077360;28;20199;-80
2021/09/27 03:14:08;;;;;;;15.60;13.57;;;17.70;99.90;;;;;;5077253;28;20237;-80
2021/09/27 03:16:45;;;;;;;15.53;13.83;;;17.70;99.90;;;;;;5095208;28;20171;-80
2021/09/27 03:19:25;;;;;;;16.23;14.53;;;17.70;99.90;;;;;;5095221;28;20248;-81
2021/09/27 03:22:07;;;;;;;14.87;13.23;;;17.60;99.90;;;;;;5077097;28;20251;-82
2021/09/27 03:25:10;;;;;;;15.83;13.50;;;17.70;99.90;;;;;;5076133;28;20211;-80
2021/09/27 03:28:00;;;;;;;19.20;14.63;;;17.80;99.90;;;;;;5076837;28;20176;-81
2021/09/27 03:30:56;;;;;;;19.80;14.57;;;18.00;99.90;;;;;;5094868;28;20245;-80
2021/09/27 03:33:33;;;;;;;19.83;15.50;;;18.00;99.90;;;;;;5076723;28;20185;-82
2021/09/27 03:36:31;;;;;;;18.67;14.93;;;18.10;99.90;;;;;;5077157;28;20252;-83
2021/09/27 03:39:32;;;;;;;17.43;15.40;;;18.10;99.90;;;;;;5076696;28;20214;-82
2021/09/27 03:42:31;;;;;;;17.53;15.00;;;18.10;99.90;;;;;;5098083;28;20179;-83
2021/09/27 03:45:12;;;;;;;15.80;14.13;;;18.00;99.90;;;;;;5077507;28;20171;-83
2021/09/27 03:48:02;;;;;;;18.33;14.90;;;17.80;99.90;;;;;;5094794;28;20171;-82
2021/09/27 03:50:44;;;;;;;16.77;15.10;;;17.70;99.90;;;;;;5094704;28;20199;-81
2021/09/27 03:53:31;;;;;;;16.43;14.73;;;17.70;99.90;;;;;;5093946;28;20147;-81
2021/09/27 03:56:06;;;;;;;16.17;14.47;;;17.90;99.90;;;;;;5094579;28;20200;-81
2021/09/27 03:58:39;;;;;;;16.20;14.60;;;17.80;99.90;;;;;;5093802;28;20200;-80
2021/09/27 04:01:17;;;;;;;16.80;14.30;;;17.90;99.90;;;;;;5076086;28;20259;-81
2021/09/27 04:04:02;;;;;;;16.73;14.33;;;17.80;99.90;;;;;;5094153;28;20181;-81
2021/09/27 04:06:39;;;;;;;15.90;14.13;;;17.80;99.90;;;;;;5075247;28;20544;-81
2021/09/27 04:09:31;;;;;;;17.60;14.73;;;17.70;99.90;;;;;;5075487;28;20178;-80
2021/09/27 04:12:03;;;;;;;17.80;14.57;;;17.60;99.90;;;;;;5082816;28;20184;-82
2021/09/27 04:14:52;;;;;;;16.73;14.87;;;17.50;99.90;;;;;;5093736;28;20210;-81
2021/09/27 04:17:39;;;;;;;16.97;15.17;;;17.40;99.90;;;;;;5075609;28;20588;-81
2021/09/27 04:20:55;;;;;;;18.30;16.40;;;17.40;99.90;;;;;;5076980;28;20659;-80
2021/09/27 04:23:40;;;;;;;17.43;15.37;;;17.30;99.90;;;;;;5095835;28;20168;-80
2021/09/27 04:26:14;;;;;;;18.20;16.30;;;17.30;99.90;;;;;;5095305;28;20225;-80
2021/09/27 04:29:13;;;;;;;17.43;15.63;;;17.40;99.90;;;;;;5094267;28;20167;-81
2021/09/27 04:31:47;;;;;;;20.90;16.97;;;17.40;99.90;;;;;;5065607;28;20659;-82
2021/09/27 04:34:13;;;;;;;20.53;17.47;;;17.40;99.90;;;;;;5093713;28;20712;-81
2021/09/27 04:36:43;;;;;;;20.13;17.07;;;17.40;99.90;;;;;;5093475;28;20196;-82
2021/09/27 04:39:16;;;;;;;20.57;18.00;;;17.40;99.90;;;;;;5093666;28;20685;-81
2021/09/27 04:41:54;;;;;;;23.57;17.53;;;17.40;99.90;;;;;;5093535;28;20164;-81
2021/09/27 04:44:41;;;;;;;20.90;18.33;;;17.40;99.90;;;;;;5093500;28;20647;-81
2021/09/27 04:47:27;;;;;;;21.47;17.40;;;17.40;99.90;;;;;;5094737;28;20244;-81
2021/09/27 04:49:56;;;;;;;24.20;19.00;;;17.40;99.90;;;;;;5075738;28;20539;-81
2021/09/27 04:52:33;;;;;;;20.47;17.90;;;17.40;99.90;;;;;;5093858;28;20175;-81
2021/09/27 04:55:09;;;;;;;21.07;18.23;;;17.40;99.90;;;;;;5093205;28;20532;-81
2021/09/27 04:58:12;;;;;;;20.07;18.00;;;17.40;99.90;;;;;;5075196;28;20203;-81
2021/09/27 05:01:02;;;;;;;20.50;17.07;;;17.40;99.90;;;;;;5093577;28;20171;-83
2021/09/27 05:03:54;;;;;;;22.30;17.67;;;17.50;99.90;;;;;;5093724;28;20531;-83
2021/09/27 05:06:39;;;;;;;19.77;17.13;;;17.50;99.90;;;;;;5075157;28;20173;-83
2021/09/27 05:09:25;;;;;;;20.10;16.60;;;17.50;99.90;;;;;;5093598;28;20527;-83
2021/09/27 05:12:19;;;;;;;21.87;17.73;;;17.50;99.90;;;;;;5078680;28;20661;-83
2021/09/27 05:14:47;;;;;;;24.17;18.63;;;17.50;99.90;;;;;;5097575;28;20203;-84
2021/09/27 05:17:21;;;;;;;20.20;17.97;;;17.50;99.90;;;;;;5097803;28;20163;-82
2021/09/27 05:20:31;;;;;;;20.73;16.30;;;17.50;99.90;;;;;;5097494;28;20178;-84
2021/09/27 05:23:10;;;;;;;20.00;17.17;;;17.50;99.90;;;;;;5097984;28;20195;-82
2021/09/27 05:25:54;;;;;;;22.77;18.23;;;17.50;99.90;;;;;;5079383;28;20203;-82
2021/09/27 05:28:41;;;;;;;19.37;16.83;;;17.50;99.90;;;;;;5097643;28;20164;-83
2021/09/27 05:31:16;;;;;;;20.77;16.77;;;17.60;99.90;;;;;;5097653;28;20159;-84
2021/09/27 05:34:05;;;;;;;19.40;16.13;;;17.50;99.90;;;;;;5097423;28;20556;-84
2021/09/27 05:36:45;;;;;;;18.07;15.63;;;17.60;99.90;;;;;;5097380;28;20306;-83
2021/09/27 05:39:40;;;;;;;19.13;16.70;;;17.70;99.90;;;;;;5079137;28;20222;-81
2021/09/27 05:42:25;;;;;;;20.80;16.30;;;17.60;99.90;;;;;;5097262;28;20180;-81
2021/09/27 05:45:09;;;;;;;19.10;16.13;;;17.70;99.90;;;;;;5078823;28;20252;-82
2021/09/27 05:47:51;;;;;;;17.83;15.20;;;17.80;99.90;;;;;;5098205;28;20664;-84
2021/09/27 05:50:25;;;;;;;19.47;14.20;;;17.80;99.90;;;;;;5092224;28;20219;-82
2021/09/27 05:53:39;;;;;;;17.00;14.83;;;17.80;99.90;;;;;;5112105;28;20161;-80
2021/09/27 05:56:30;;;;;;;16.20;13.47;;;17.80;99.90;;;;;;5039910;28;20185;-82
2021/09/27 05:59:14;;;;;;;16.33;13.67;;;17.80;99.90;;;;;;5115215;28;20221;-81
2021/09/27 06:01:55;;;;;;;16.63;13.37;;;17.80;99.90;;;;;;5118578;28;20160;-82
2021/09/27 06:04:28;;;;;;;16.63;13.60;;;17.90;99.90;;;;;;5085886;28;20176;-81
2021/09/27 06:07:08;;;;;;;16.80;13.37;;;17.90;99.90;;;;;;5107699;28;20168;-81
2021/09/27 06:10:09;;;;;;;17.63;12.60;;;17.90;99.90;;;;;;5084924;28;20233;-82
2021/09/27 06:12:56;;;;;;;13.27;11.93;;;18.00;99.90;;;;;;5099947;28;20164;-82
2021/09/27 06:15:33;;;;;;;13.33;10.83;;;18.00;99.90;;;;;;5102920;28;20194;-82
2021/09/27 06:18:31;;;;;;;14.60;10.83;;;18.00;99.90;;;;;;5093043;28;20682;-82
2021/09/27 06:21:27;;;;;;;16.13;11.93;;;18.00;99.90;;;;;;5079613;28;20274;-83
2021/09/27 06:24:05;;;;;;;14.60;10.90;;;18.00;99.90;;;;;;5076628;28;20179;-82
2021/09/27 06:26:44;;;;;;;18.63;11.40;;;18.00;99.90;;;;;;5077045;28;20183;-84
2021/09/27 06:29:49;;;;;;;12.70;10.30;;;18.00;99.90;;;;;;5075743;28;20620;-84
2021/09/27 06:32:30;;;;;;;18.67;10.93;;;18.00;99.90;;;;;;5075641;28;20176;-83
2021/09/27 06:35:02;;;;;;;17.67;9.97;;;18.10;99.90;;;;;;5057008;28;20179;-83
2021/09/27 06:37:29;;;;;;;12.50;9.97;;;18.10;99.90;;;;;;5073545;28;20176;-81
2021/09/27 06:40:04;;;;;;;13.53;10.10;;;18.20;99.90;;;;;;5075805;28;20567;-80
2021/09/27 06:42:30;;;;;;;13.87;9.83;;;18.30;99.90;;;;;;5057628;28;20250;-82
2021/09/27 06:44:55;;;;;;;12.13;9.40;;;18.30;99.90;;;;;;5057972;28;20662;-80
2021/09/27 06:47:25;;;;;;;10.33;8.47;;;18.40;99.90;;;;;;5075249;28;20536;-83
2021/09/27 06:49:50;;;;;;;9.00;7.97;;;18.30;99.90;;;;;;5075526;28;20168;-82
2021/09/27 06:52:17;;;;;;;11.27;8.43;;;18.40;99.90;;;;;;5057506;28;20184;-82
2021/09/27 06:54:43;;;;;;;12.10;8.57;;;18.30;99.90;;;;;;5075698;28;20173;-81
2021/09/27 06:57:13;;;;;;;10.10;8.13;;;18.30;99.90;;;;;;5058749;28;20654;-81
2021/09/27 06:59:38;;;;;;;10.40;8.30;;;18.30;99.90;;;;;;5075455;28;20552;-84
2021/09/27 07:02:05;;;;;;;11.47;7.87;;;18.30;99.90;;;;;;5057587;28;20169;-84
2021/09/27 07:04:31;;;;;;;11.57;7.60;;;18.30;99.90;;;;;;5043420;28;20635;-82
2021/09/27 07:06:57;;;;;;;12.17;7.37;;;18.30;99.90;;;;;;5075798;28;20199;-82
2021/09/27 07:09:23;;;;;;;12.77;7.57;;;18.40;99.90;;;;;;5075520;28;20179;-84
2021/09/27 07:11:48;;;;;;;11.10;7.77;;;18.30;99.90;;;;;;5057340;28;20566;-81
2021/09/27 07:14:14;;;;;;;9.23;7.40;;;18.30;99.90;;;;;;5057423;28;20168;-83
2021/09/27 07:16:41;;;;;;;9.07;7.53;;;18.40;99.90;;;;;;5075705;28;20169;-80
2021/09/27 07:19:10;;;;;;;9.30;7.37;;;18.40;99.90;;;;;;5075531;28;20294;-83
2021/09/27 07:21:38;;;;;;;8.60;6.87;;;18.40;99.90;;;;;;5076128;28;20196;-83
2021/09/27 07:24:04;;;;;;;10.97;7.50;;;18.40;99.90;;;;;;5078007;28;20198;-82
2021/09/27 07:26:33;;;;;;;9.10;6.87;;;18.50;99.90;;;;;;5078393;28;20169;-83
2021/09/27 07:28:59;;;;;;;9.53;6.70;;;18.40;99.90;;;;;;5076297;28;20168;-81
2021/09/27 07:31:30;;;;;;;9.50;6.17;;;18.40;99.90;;;;;;5075294;28;20196;-84
2021/09/27 07:33:58;;;;;;;8.57;6.73;;;18.50;99.90;;;;;;5076027;28;20637;-81
2021/09/27 07:36:24;;;;;;;8.47;6.00;;;18.50;99.90;;;;;;5074782;28;20172;-83
2021/09/27 07:38:50;;;;;;;7.37;5.87;;;18.40;99.90;;;;;;5080615;28;20208;-83
2021/09/27 07:41:16;;;;;;;8.13;5.90;;;18.40;99.90;;;;;;5081197;28;20226;-83
2021/09/27 07:43:42;;;;;;;7.47;5.97;;;18.50;99.90;;;;;;5056801;28;20176;-82
2021/09/27 07:46:07;;;;;;;8.90;6.13;;;18.50;99.90;;;;;;5057119;28;20659;-82
2021/09/27 07:48:34;;;;;;;8.73;6.33;;;18.50;99.90;;;;;;5074512;28;20183;-81
2021/09/27 07:51:00;;;;;;;8.80;5.70;;;18.60;99.90;;;;;;5056663;28;20176;-82
2021/09/27 07:53:27;;;;;;;7.30;5.67;;;18.70;99.90;;;;;;5073972;28;20183;-83
2021/09/27 07:55:53;;;;;;;8.33;5.67;;;18.70;99.90;;;;;;5074007;28;20200;-81
2021/09/27 07:58:20;;;;;;;7.23;5.37;;;18.90;99.90;;;;;;5073741;28;20208;-82
2021/09/27 08:00:49;;;;;;;9.63;5.53;;;18.80;99.90;;;;;;5076212;28;20175;-81
2021/09/27 08:03:16;;;;;;;7.93;5.73;;;18.80;99.90;;;;;;5056470;28;20172;-82
2021/09/27 08:05:45;;;;;;;9.23;5.57;;;18.80;99.90;;;;;;5074720;28;20180;-81
2021/09/27 08:08:11;;;;;;;8.27;5.03;;;18.90;99.90;;;;;;5074523;28;20179;-81
2021/09/27 08:10:38;;;;;;;8.07;4.80;;;18.90;99.90;;;;;;5074194;28;20682;-82
2021/09/27 08:13:04;;;;;;;7.90;5.00;;;18.90;99.90;;;;;;5074024;28;20177;-82
2021/09/27 08:15:35;;;;;;;7.23;4.93;;;19.00;99.90;;;;;;5073722;28;20168;-81
2021/09/27 08:18:03;;;;;;;7.30;5.00;;;19.00;99.90;;;;;;5074405;28;20208;-82
2021/09/27 08:20:51;;;;;;;5.73;4.53;;;19.00;99.90;;;;;;5074229;28;20960;-81
2021/09/27 08:23:18;;;;;;;7.23;5.20;;;19.10;99.90;;;;;;5076045;28;20251;-84
2021/09/27 08:25:44;;;;;;;6.40;4.70;;;19.10;99.90;;;;;;5074004;28;20570;-81
2021/09/27 08:28:13;;;;;;;8.13;5.20;;;19.10;99.90;;;;;;5074190;28;20175;-82
2021/09/27 08:30:47;;;;;;;8.83;4.67;;;19.00;99.90;;;;;;5074275;28;20588;-81
2021/09/27 08:33:12;;;;;;;6.93;5.17;;;19.00;99.90;;;;;;5074538;28;20217;-81
2021/09/27 08:35:39;;;;;;;6.37;4.80;;;19.00;99.90;;;;;;5074936;28;20184;-81
2021/09/27 08:38:07;;;;;;;7.37;4.90;;;18.90;99.90;;;;;;5074529;28;20231;-84
2021/09/27 08:40:47;;;;;;;8.63;4.60;;;18.90;99.90;;;;;;5058452;28;20200;-82
2021/09/27 08:43:42;;;;;;;7.93;5.27;;;18.90;99.90;;;;;;5058670;28;20172;-84
2021/09/27 08:46:36;;;;;;;6.87;4.27;;;18.90;99.90;;;;;;5066685;28;20225;-81
2021/09/27 08:49:39;;;;;;;6.23;4.60;;;18.90;99.90;;;;;;5073664;28;20164;-82
2021/09/27 08:52:08;;;;;;;8.10;4.80;;;18.90;99.90;;;;;;5075746;28;20174;-83
2021/09/27 08:54:35;;;;;;;6.90;4.63;;;19.00;99.90;;;;;;5075081;28;20639;-82
2021/09/27 08:57:46;;;;;;;11.73;4.97;;;19.00;99.90;;;;;;5074095;28;20164;-84
2021/09/27 09:00:38;;;;;;;9.77;4.60;;;19.20;99.90;;;;;;5076605;28;20184;-82
2021/09/27 09:03:25;;;;;;;7.10;4.67;;;19.20;99.90;;;;;;5084204;28;20275;-83
2021/09/27 09:06:12;;;;;;;8.13;4.37;;;19.20;99.60;;;;;;5065475;28;20184;-81
2021/09/27 09:08:51;;;;;;;5.73;4.07;;;19.20;99.40;;;;;;5082165;28;20679;-83
2021/09/27 09:11:38;;;;;;;9.97;4.67;;;19.30;99.20;;;;;;5076925;28;20182;-82
2021/09/27 09:14:36;;;;;;;7.50;3.83;;;19.50;98.60;;;;;;5074654;28;20171;-81
2021/09/27 09:17:15;;;;;;;5.47;4.13;;;19.50;98.10;;;;;;5039503;28;20188;-82
2021/09/27 09:19:41;;;;;;;7.53;4.40;;;19.60;98.00;;;;;;5073723;28;20212;-80
2021/09/27 09:22:33;;;;;;;5.87;3.90;;;19.50;97.60;;;;;;5055674;28;20512;-82
2021/09/27 09:25:19;;;;;;;8.53;3.87;;;19.50;97.70;;;;;;5055271;28;20257;-82
2021/09/27 09:27:45;;;;;;;5.63;3.93;;;19.50;97.50;;;;;;5062887;28;20168;-79
2021/09/27 09:30:11;;;;;;;11.00;4.13;;;19.50;97.40;;;;;;5079555;28;20169;-80
2021/09/27 09:32:37;;;;;;;5.53;3.73;;;19.50;97.80;;;;;;5063689;28;20187;-81
2021/09/27 09:35:16;;;;;;;6.70;3.93;;;19.50;97.30;;;;;;5077621;28;20687;-81
2021/09/27 09:37:51;;;;;;;6.70;3.70;;;19.50;97.30;;;;;;5078075;28;20604;-80
2021/09/27 09:40:27;;;;;;;6.33;3.90;;;19.40;97.50;;;;;;5075328;28;20603;-82
2021/09/27 09:43:07;;;;;;;6.33;5.13;;;19.40;97.40;;;;;;5057793;28;20197;-82
2021/09/27 09:45:35;;;;;;;7.47;3.40;;;19.50;97.40;;;;;;5056641;28;20183;-82
2021/09/27 09:48:19;;;;;;;8.87;3.90;;;19.50;97.40;;;;;;5074666;28;20539;-81
2021/09/27 09:50:47;;;;;;;10.83;8.63;;;19.50;97.70;;;;;;5074515;28;20231;-81
2021/09/27 09:53:21;;;;;;;8.73;3.77;;;19.50;97.70;;;;;;5056238;28;20258;-82
2021/09/27 09:56:07;;;;;;;10.83;4.30;;;19.50;97.50;;;;;;5056684;28;20180;-80
2021/09/27 09:58:49;;;;;;;8.00;4.07;;;19.60;97.10;;;;;;5063585;28;20247;-81
2021/09/27 10:01:35;;;;;;;7.37;4.07;;;19.60;96.90;;;;;;5077589;28;20600;-82
2021/09/27 10:04:09;;;;;;;10.00;3.70;;;19.70;96.80;;;;;;5077442;28;20169;-81
2021/09/27 10:07:00;;;;;;;5.07;3.00;;;19.70;96.50;;;;;;5059212;28;20179;-81
2021/09/27 10:09:57;;;;;;;6.60;3.27;;;19.80;96.10;;;;;;5077089;28;20534;-80
2021/09/27 10:12:51;;;;;;;11.20;3.67;;;19.80;95.70;;;;;;5036623;28;20253;-80
2021/09/27 10:15:26;;;;;;;5.17;3.03;;;19.90;95.40;;;;;;5094265;28;20177;-81
2021/09/27 10:18:01;;;;;;;7.90;3.57;;;19.90;94.90;;;;;;5078189;28;20200;-82
2021/09/27 10:20:37;;;;;;;5.97;3.30;;;20.10;94.80;;;;;;5078720;28;20233;-82
2021/09/27 10:23:11;;;;;;;5.57;3.20;;;20.10;94.30;;;;;;5059875;28;20237;-83
2021/09/27 10:25:45;;;;;;;7.83;3.33;;;20.00;93.70;;;;;;5061234;28;20350;-81
2021/09/27 10:28:17;;;;;;;8.13;3.30;;;20.10;93.40;;;;;;5078710;28;20249;-82
2021/09/27 10:30:54;;;;;;;6.67;3.00;;;20.30;92.90;;;;;;5077252;28;20258;-82
2021/09/27 10:33:33;;;;;;;5.83;3.30;;;20.40;92.30;;;;;;5077438;28;20527;-83
2021/09/27 10:36:18;;;;;;;6.13;3.07;;;20.40;91.00;;;;;;5078007;28;20237;-84
2021/09/27 10:38:58;;;;;;;4.13;2.80;;;20.40;90.90;;;;;;5078769;28;20205;-82
2021/09/27 10:41:24;;;;;;;7.13;3.30;;;20.50;90.60;;;;;;5084616;28;20680;-82
2021/09/27 10:43:53;;;;;;;6.33;2.83;;;20.50;90.30;;;;;;5081915;28;20230;-81
2021/09/27 10:46:21;;;;;;;6.83;2.90;;;20.50;90.30;;;;;;5076795;28;20168;-82
2021/09/27 10:48:55;;;;;;;8.30;2.63;;;20.60;90.10;;;;;;5059238;28;20170;-84
2021/09/27 10:51:26;;;;;;;10.67;3.17;;;20.60;88.10;;;;;;5076270;28;20166;-82
2021/09/27 10:54:13;;;;;;;8.27;2.90;;;20.80;88.20;;;;;;5057340;28;20170;-81
2021/09/27 10:56:49;;;;;;;8.87;2.73;;;20.80;86.70;;;;;;5075479;28;20678;-82
2021/09/27 10:59:30;;;;;;;9.10;2.60;;;20.90;84.10;;;;;;5057480;28;20218;-81
2021/09/27 11:02:12;;;;;;;8.27;2.93;;;21.00;83.10;;;;;;5075781;28;20162;-81
2021/09/27 11:04:44;;;;;;;6.17;2.30;;;21.00;82.30;;;;;;5057550;28;20656;-80
2021/09/27 11:07:25;;;;;;;5.30;2.20;;;21.10;80.80;;;;;;5075468;28;20553;-82
2021/09/27 11:09:54;;;;;;;6.20;3.00;;;21.20;78.90;;;;;;5057792;28;20175;-82
2021/09/27 11:12:34;;;;;;;5.73;2.60;;;21.10;81.10;;;;;;5076210;28;20178;-82
2021/09/27 11:15:19;;;;;;;10.90;2.90;;;20.90;82.80;;;;;;5075612;28;20198;-82
2021/09/27 11:17:59;;;;;;;6.80;2.63;;;21.00;82.90;;;;;;5074737;28;20657;-82
2021/09/27 11:20:58;;;;;;;5.03;2.53;;;21.10;81.80;;;;;;5074728;28;20268;-81
2021/09/27 11:23:26;;;;;;;5.50;2.40;;;21.10;80.20;;;;;;5074783;28;20172;-82
2021/09/27 11:26:28;;;;;;;7.07;2.70;;;21.10;78.80;;;;;;5074844;28;20210;-83
2021/09/27 11:29:19;;;;;;;5.37;2.33;;;20.90;81.90;;;;;;5074985;28;20533;-84
2021/09/27 11:32:26;;;;;;;6.07;2.70;;;20.80;84.30;;;;;;5076136;28;20181;-82
2021/09/27 11:35:16;;;;;;;6.17;2.60;;;20.70;86.80;;;;;;5057652;28;20188;-81
2021/09/27 11:37:44;;;;;;;8.23;2.90;;;20.70;89.30;;;;;;5075253;28;20194;-81
2021/09/27 11:40:32;;;;;;;5.93;2.40;;;20.70;90.90;;;;;;5057951;28;20178;-81
2021/09/27 11:43:35;;;;;;;5.10;2.23;;;20.80;91.50;;;;;;5059776;28;20171;-84
2021/09/27 11:46:29;;;;;;;7.17;2.60;;;20.50;92.30;;;;;;5077862;28;20169;-84
2021/09/27 11:49:26;;;;;;;7.33;2.70;;;20.50;94.70;;;;;;5076974;28;20256;-83
2021/09/27 11:52:31;;;;;;;7.70;2.63;;;20.50;95.30;;;;;;5060521;28;20210;-80
2021/09/27 11:55:09;;;;;;;4.80;2.40;;;20.40;96.40;;;;;;5045308;28;20252;-82
2021/09/27 11:58:01;;;;;;;6.93;2.80;;;20.30;96.50;;;;;;5075413;28;20170;-81
2021/09/27 12:00:37;;;;;;;5.37;2.67;;;20.30;96.90;;;;;;5056191;28;20191;-81
2021/09/27 12:03:05;;;;;;;4.67;2.47;;;20.20;97.20;;;;;;5056506;28;20181;-82
2021/09/27 12:05:43;;;;;;;5.50;2.50;;;20.00;98.70;;;;;;5076697;28;20825;-80
2021/09/27 12:08:23;;;;;;;5.13;2.70;;;19.90;99.80;;;;;;5061642;28;20172;-80
2021/09/27 12:10:58;;;;;;;6.73;2.80;;;19.80;99.90;;;;;;5089027;28;20163;-80
2021/09/27 12:13:27;;;;;;;10.30;3.60;;;19.70;99.90;;;;;;5086818;28;20170;-79
2021/09/27 12:15:57;;;;;;;6.00;2.80;;;19.50;99.90;;;;;;5080571;28;20208;-80
2021/09/27 12:18:54;;;;;;;6.63;3.13;;;19.40;99.90;;;;;;5079070;28;20652;-80
2021/09/27 12:21:33;;;;;;;6.47;3.10;;;19.30;99.90;;;;;;5060907;28;20234;-81
2021/09/27 12:24:10;;;;;;;5.73;3.00;;;19.20;99.90;;;;;;5074680;28;20188;-80
2021/09/27 12:26:41;;;;;;;3.77;2.93;;;19.10;99.90;;;;;;5075332;28;20176;-79
2021/09/27 12:29:17;;;;;;;9.77;2.70;;;19.00;99.90;;;;;;5075236;28;20195;-77
2021/09/27 12:32:00;;;;;;;5.03;2.93;;;18.80;99.90;;;;;;5065601;28;20196;-79
2021/09/27 12:34:36;;;;;;;5.63;2.50;;;18.90;99.90;;;;;;5082148;28;20173;-81
2021/09/27 12:37:08;;;;;;;4.17;2.13;;;18.90;99.90;;;;;;5056817;28;20207;-80
2021/09/27 12:39:35;;;;;;;4.30;2.57;;;18.70;99.90;;;;;;5074379;28;20298;-82
2021/09/27 12:42:04;;;;;;;4.07;2.50;;;18.60;99.90;;;;;;5056209;28;20200;-82
2021/09/27 12:44:35;;;;;;;9.30;2.97;;;18.60;99.90;;;;;;5055748;28;20259;-83
2021/09/27 12:47:05;;;;;;;3.83;2.27;;;18.70;99.90;;;;;;5073967;28;20172;-80
2021/09/27 12:49:49;;;;;;;3.57;1.80;;;18.60;99.90;;;;;;5074411;28;20215;-82
2021/09/27 12:52:47;;;;;;;3.87;2.20;;;18.50;99.90;;;;;;5074222;28;20198;-82
2021/09/27 12:55:16;;;;;;;3.87;2.30;;;18.50;99.90;;;;;;5056423;28;20194;-82
2021/09/27 12:57:47;;;;;;;3.93;2.27;;;18.50;99.90;;;;;;5075257;28;20179;-82
2021/09/27 13:00:33;;;;;;;4.17;2.73;;;18.40;99.90;;;;;;5073994;28;20180;-82
2021/09/27 13:03:07;;;;;;;4.37;2.47;;;18.40;99.90;;;;;;5073903;28;20175;-81
2021/09/27 13:06:11;;;;;;;4.13;2.17;;;18.40;99.90;;;;;;5073880;28;20239;-81
2021/09/27 13:08:48;;;;;;;2.70;1.90;;;18.40;99.90;;;;;;5073398;28;20194;-82
2021/09/27 13:11:37;;;;;;;5.63;2.20;;;18.40;99.90;;;;;;5074317;28;20168;-81
2021/09/27 13:14:20;;;;;;;9.90;2.90;;;18.40;99.90;;;;;;5072447;28;20251;-82
2021/09/27 13:16:55;;;;;;;5.37;2.37;;;18.40;99.90;;;;;;5079095;28;20186;-83
2021/09/27 13:19:42;;;;;;;4.40;1.97;;;18.00;99.90;;;;;;5091973;28;20233;-81
2021/09/27 13:22:29;;;;;;;7.30;3.40;;;17.70;99.90;;;;;;5090973;28;20168;-82
2021/09/27 13:25:05;;;;;;;7.73;5.17;;;17.60;99.90;;;;;;5086857;28;20565;-81
2021/09/27 13:27:49;;;;;;;12.40;7.47;;;17.60;99.90;;;;;;5093030;28;20179;-81
2021/09/27 13:30:30;;;;;;;9.87;4.40;;;17.50;99.90;;;;;;5091826;28;20168;-81
2021/09/27 13:33:05;;;;;;;4.87;1.30;;;17.50;99.90;;;;;;5095055;28;20219;-81
2021/09/27 13:35:37;;;;;;;4.83;1.50;;;17.40;99.60;;;;;;5096145;28;20198;-81
2021/09/27 13:38:10;;;;;;;4.80;1.50;;;17.50;99.90;;;;;;5096126;28;20201;-83